sensor_id;sensor_type;location;lat;lon;timestamp;P1;durP1;ratioP1;P2;durP2;ratioP2
7931;SDS011;4011;49.424;10.894;2022-12-29T00:00:29;3.95;;;2.30;;
7931;SDS011;4011;49.424;10.894;2022-12-29T00:05:55;4.15;;;2.05;;
7931;SDS011;4011;49.424;10.894;2022-12-29T00:11:18;3.33;;;2.00;;
7931;SDS011;4011;49.424;10.894;2022-12-29T00:16:40;4.03;;;2.00;;
7931;SDS011;4011;49.424;10.894;2022-12-29T00:22:03;4.10;;;2.10;;
7931;SDS011;4011;49.424;10.894;2022-12-29T00:27:42;3.92;;;2.03;;
7931;SDS011;4011;49.424;10.894;2022-12-29T00:33:22;3.53;;;2.08;;
7931;SDS011;4011;49.424;10.894;2022-12-29T00:39:06;3.30;;;1.90;;
7931;SDS011;4011;49.424;10.894;2022-12-29T00:44:46;4.18;;;2.30;;
7931;SDS011;4011;49.424;10.894;2022-12-29T00:50:07;3.50;;;2.10;;
7931;SDS011;4011;49.424;10.894;2022-12-29T00:55:30;2.50;;;1.60;;
7931;SDS011;4011;49.424;10.894;2022-12-29T01:01:00;3.28;;;1.95;;
7931;SDS011;4011;49.424;10.894;2022-12-29T01:06:21;3.75;;;1.80;;
7931;SDS011;4011;49.424;10.894;2022-12-29T01:11:45;2.97;;;1.83;;
7931;SDS011;4011;49.424;10.894;2022-12-29T01:17:06;3.00;;;1.70;;
7931;SDS011;4011;49.424;10.894;2022-12-29T01:22:28;3.10;;;1.60;;
7931;SDS011;4011;49.424;10.894;2022-12-29T01:27:50;3.33;;;1.70;;
7931;SDS011;4011;49.424;10.894;2022-12-29T01:33:12;3.35;;;2.00;;
7931;SDS011;4011;49.424;10.894;2022-12-29T01:38:34;3.15;;;1.60;;
7931;SDS011;4011;49.424;10.894;2022-12-29T01:43:58;2.97;;;1.60;;
7931;SDS011;4011;49.424;10.894;2022-12-29T01:49:21;3.03;;;1.70;;
7931;SDS011;4011;49.424;10.894;2022-12-29T01:54:46;2.75;;;1.63;;
7931;SDS011;4011;49.424;10.894;2022-12-29T02:00:12;3.28;;;1.70;;
7931;SDS011;4011;49.424;10.894;2022-12-29T02:05:36;3.35;;;1.80;;
7931;SDS011;4011;49.424;10.894;2022-12-29T02:10:59;3.05;;;1.73;;
7931;SDS011;4011;49.424;10.894;2022-12-29T02:16:26;2.47;;;1.70;;
7931;SDS011;4011;49.424;10.894;2022-12-29T02:21:54;2.85;;;1.80;;
7931;SDS011;4011;49.424;10.894;2022-12-29T02:27:33;2.75;;;1.60;;
7931;SDS011;4011;49.424;10.894;2022-12-29T02:33:00;2.88;;;1.75;;
7931;SDS011;4011;49.424;10.894;2022-12-29T02:38:31;2.25;;;1.40;;
7931;SDS011;4011;49.424;10.894;2022-12-29T02:43:56;3.00;;;1.60;;
7931;SDS011;4011;49.424;10.894;2022-12-29T02:49:24;3.55;;;1.80;;
7931;SDS011;4011;49.424;10.894;2022-12-29T02:54:48;3.20;;;1.65;;
7931;SDS011;4011;49.424;10.894;2022-12-29T03:00:10;3.40;;;1.58;;
7931;SDS011;4011;49.424;10.894;2022-12-29T03:05:44;2.40;;;1.70;;
7931;SDS011;4011;49.424;10.894;2022-12-29T03:11:10;2.40;;;1.50;;
7931;SDS011;4011;49.424;10.894;2022-12-29T03:16:53;2.50;;;1.60;;
7931;SDS011;4011;49.424;10.894;2022-12-29T03:22:19;3.22;;;1.60;;
7931;SDS011;4011;49.424;10.894;2022-12-29T03:27:51;2.70;;;1.60;;
7931;SDS011;4011;49.424;10.894;2022-12-29T03:33:14;2.78;;;1.63;;
7931;SDS011;4011;49.424;10.894;2022-12-29T03:38:39;2.47;;;1.60;;
7931;SDS011;4011;49.424;10.894;2022-12-29T03:44:05;3.22;;;1.63;;
7931;SDS011;4011;49.424;10.894;2022-12-29T03:49:26;2.67;;;1.73;;
7931;SDS011;4011;49.424;10.894;2022-12-29T03:54:49;2.42;;;1.40;;
7931;SDS011;4011;49.424;10.894;2022-12-29T04:00:11;2.72;;;1.60;;
7931;SDS011;4011;49.424;10.894;2022-12-29T04:05:33;2.67;;;1.60;;
7931;SDS011;4011;49.424;10.894;2022-12-29T04:10:56;2.90;;;1.80;;
7931;SDS011;4011;49.424;10.894;2022-12-29T04:16:17;2.47;;;1.55;;
7931;SDS011;4011;49.424;10.894;2022-12-29T04:21:38;2.90;;;1.50;;
7931;SDS011;4011;49.424;10.894;2022-12-29T04:27:02;4.15;;;1.60;;
7931;SDS011;4011;49.424;10.894;2022-12-29T04:32:23;2.72;;;1.65;;
7931;SDS011;4011;49.424;10.894;2022-12-29T04:37:45;2.47;;;1.48;;
7931;SDS011;4011;49.424;10.894;2022-12-29T04:43:08;2.33;;;1.50;;
7931;SDS011;4011;49.424;10.894;2022-12-29T04:48:30;2.13;;;1.45;;
7931;SDS011;4011;49.424;10.894;2022-12-29T04:53:51;3.10;;;1.60;;
7931;SDS011;4011;49.424;10.894;2022-12-29T04:59:14;3.30;;;1.70;;
7931;SDS011;4011;49.424;10.894;2022-12-29T05:04:36;2.30;;;1.50;;
7931;SDS011;4011;49.424;10.894;2022-12-29T05:09:57;3.42;;;1.65;;
7931;SDS011;4011;49.424;10.894;2022-12-29T05:15:20;2.40;;;1.42;;
7931;SDS011;4011;49.424;10.894;2022-12-29T05:20:42;3.20;;;1.70;;
7931;SDS011;4011;49.424;10.894;2022-12-29T05:26:05;2.47;;;1.60;;
7931;SDS011;4011;49.424;10.894;2022-12-29T05:31:29;4.63;;;1.60;;
7931;SDS011;4011;49.424;10.894;2022-12-29T05:36:50;3.83;;;1.80;;
7931;SDS011;4011;49.424;10.894;2022-12-29T05:42:12;4.95;;;2.10;;
7931;SDS011;4011;49.424;10.894;2022-12-29T05:47:35;4.43;;;1.67;;
7931;SDS011;4011;49.424;10.894;2022-12-29T05:52:56;4.28;;;2.33;;
7931;SDS011;4011;49.424;10.894;2022-12-29T05:58:18;6.15;;;2.22;;
7931;SDS011;4011;49.424;10.894;2022-12-29T06:03:41;3.63;;;2.00;;
7931;SDS011;4011;49.424;10.894;2022-12-29T06:09:02;4.90;;;2.05;;
7931;SDS011;4011;49.424;10.894;2022-12-29T06:14:24;4.20;;;2.00;;
7931;SDS011;4011;49.424;10.894;2022-12-29T06:19:47;5.03;;;2.10;;
7931;SDS011;4011;49.424;10.894;2022-12-29T06:25:08;3.25;;;1.80;;
7931;SDS011;4011;49.424;10.894;2022-12-29T06:30:30;3.22;;;1.77;;
7931;SDS011;4011;49.424;10.894;2022-12-29T06:35:53;3.40;;;2.08;;
7931;SDS011;4011;49.424;10.894;2022-12-29T06:41:14;3.38;;;1.90;;
7931;SDS011;4011;49.424;10.894;2022-12-29T06:46:35;4.50;;;1.90;;
7931;SDS011;4011;49.424;10.894;2022-12-29T06:51:58;3.10;;;1.90;;
7931;SDS011;4011;49.424;10.894;2022-12-29T06:57:23;3.95;;;1.90;;
7931;SDS011;4011;49.424;10.894;2022-12-29T07:02:46;2.85;;;1.70;;
7931;SDS011;4011;49.424;10.894;2022-12-29T07:08:09;3.42;;;1.73;;
7931;SDS011;4011;49.424;10.894;2022-12-29T07:13:31;2.88;;;1.70;;
7931;SDS011;4011;49.424;10.894;2022-12-29T07:18:52;2.92;;;1.60;;
7931;SDS011;4011;49.424;10.894;2022-12-29T07:24:16;4.50;;;1.70;;
7931;SDS011;4011;49.424;10.894;2022-12-29T07:29:38;2.85;;;1.73;;
7931;SDS011;4011;49.424;10.894;2022-12-29T07:34:59;2.30;;;1.50;;
7931;SDS011;4011;49.424;10.894;2022-12-29T07:40:23;3.10;;;1.70;;
7931;SDS011;4011;49.424;10.894;2022-12-29T07:45:44;2.60;;;1.50;;
7931;SDS011;4011;49.424;10.894;2022-12-29T07:51:06;3.33;;;1.88;;
7931;SDS011;4011;49.424;10.894;2022-12-29T07:56:29;2.92;;;1.70;;
7931;SDS011;4011;49.424;10.894;2022-12-29T08:01:50;3.15;;;1.73;;
7931;SDS011;4011;49.424;10.894;2022-12-29T08:07:12;3.45;;;1.90;;
7931;SDS011;4011;49.424;10.894;2022-12-29T08:12:35;3.30;;;1.70;;
7931;SDS011;4011;49.424;10.894;2022-12-29T08:17:56;3.22;;;1.80;;
7931;SDS011;4011;49.424;10.894;2022-12-29T08:23:18;2.90;;;1.63;;
7931;SDS011;4011;49.424;10.894;2022-12-29T08:28:41;3.20;;;1.90;;
7931;SDS011;4011;49.424;10.894;2022-12-29T08:34:02;3.95;;;1.90;;
7931;SDS011;4011;49.424;10.894;2022-12-29T08:39:24;3.17;;;1.60;;
7931;SDS011;4011;49.424;10.894;2022-12-29T08:44:47;3.85;;;1.70;;
7931;SDS011;4011;49.424;10.894;2022-12-29T08:50:08;3.15;;;1.80;;
7931;SDS011;4011;49.424;10.894;2022-12-29T08:55:30;3.30;;;1.80;;
7931;SDS011;4011;49.424;10.894;2022-12-29T09:00:53;2.70;;;1.70;;
7931;SDS011;4011;49.424;10.894;2022-12-29T09:06:16;2.63;;;1.60;;
7931;SDS011;4011;49.424;10.894;2022-12-29T09:11:38;2.85;;;1.73;;
7931;SDS011;4011;49.424;10.894;2022-12-29T09:17:01;3.00;;;1.80;;
7931;SDS011;4011;49.424;10.894;2022-12-29T09:22:41;2.80;;;1.70;;
7931;SDS011;4011;49.424;10.894;2022-12-29T09:28:02;2.70;;;1.75;;
7931;SDS011;4011;49.424;10.894;2022-12-29T09:33:29;2.47;;;1.50;;
7931;SDS011;4011;49.424;10.894;2022-12-29T09:38:52;2.65;;;1.60;;
7931;SDS011;4011;49.424;10.894;2022-12-29T09:44:16;3.03;;;1.60;;
7931;SDS011;4011;49.424;10.894;2022-12-29T09:49:42;3.38;;;1.67;;
7931;SDS011;4011;49.424;10.894;2022-12-29T09:55:09;2.55;;;1.60;;
7931;SDS011;4011;49.424;10.894;2022-12-29T10:00:33;2.85;;;1.70;;
7931;SDS011;4011;49.424;10.894;2022-12-29T10:06:00;3.15;;;1.80;;
7931;SDS011;4011;49.424;10.894;2022-12-29T10:11:29;3.05;;;1.60;;
7931;SDS011;4011;49.424;10.894;2022-12-29T10:16:55;3.28;;;1.65;;
7931;SDS011;4011;49.424;10.894;2022-12-29T10:22:27;2.65;;;1.75;;
7931;SDS011;4011;49.424;10.894;2022-12-29T10:27:54;2.70;;;1.67;;
7931;SDS011;4011;49.424;10.894;2022-12-29T10:33:19;3.70;;;1.90;;
7931;SDS011;4011;49.424;10.894;2022-12-29T10:38:47;2.30;;;1.40;;
7931;SDS011;4011;49.424;10.894;2022-12-29T10:44:11;3.28;;;1.60;;
7931;SDS011;4011;49.424;10.894;2022-12-29T10:49:36;3.38;;;1.70;;
7931;SDS011;4011;49.424;10.894;2022-12-29T10:55:02;2.50;;;1.60;;
7931;SDS011;4011;49.424;10.894;2022-12-29T11:00:24;2.75;;;1.77;;
7931;SDS011;4011;49.424;10.894;2022-12-29T11:05:46;3.03;;;1.60;;
7931;SDS011;4011;49.424;10.894;2022-12-29T11:11:12;2.60;;;1.52;;
7931;SDS011;4011;49.424;10.894;2022-12-29T11:16:43;2.50;;;1.50;;
7931;SDS011;4011;49.424;10.894;2022-12-29T11:22:12;3.90;;;1.60;;
7931;SDS011;4011;49.424;10.894;2022-12-29T11:27:35;3.28;;;1.60;;
7931;SDS011;4011;49.424;10.894;2022-12-29T11:32:57;2.78;;;1.60;;
7931;SDS011;4011;49.424;10.894;2022-12-29T11:38:20;2.92;;;1.60;;
7931;SDS011;4011;49.424;10.894;2022-12-29T11:43:43;2.70;;;1.60;;
7931;SDS011;4011;49.424;10.894;2022-12-29T11:49:10;2.50;;;1.70;;
7931;SDS011;4011;49.424;10.894;2022-12-29T11:54:35;2.20;;;1.40;;
7931;SDS011;4011;49.424;10.894;2022-12-29T11:59:59;3.08;;;1.50;;
7931;SDS011;4011;49.424;10.894;2022-12-29T12:05:24;2.63;;;1.50;;
7931;SDS011;4011;49.424;10.894;2022-12-29T12:10:48;2.58;;;1.60;;
7931;SDS011;4011;49.424;10.894;2022-12-29T12:16:15;2.67;;;1.50;;
7931;SDS011;4011;49.424;10.894;2022-12-29T12:21:38;3.58;;;1.55;;
7931;SDS011;4011;49.424;10.894;2022-12-29T12:27:01;2.95;;;1.60;;
7931;SDS011;4011;49.424;10.894;2022-12-29T12:32:27;1.80;;;1.40;;
7931;SDS011;4011;49.424;10.894;2022-12-29T12:37:58;2.58;;;1.50;;
7931;SDS011;4011;49.424;10.894;2022-12-29T12:43:30;2.58;;;1.60;;
7931;SDS011;4011;49.424;10.894;2022-12-29T12:49:06;3.03;;;1.67;;
7931;SDS011;4011;49.424;10.894;2022-12-29T12:54:36;3.15;;;1.70;;
7931;SDS011;4011;49.424;10.894;2022-12-29T13:00:00;3.13;;;1.70;;
7931;SDS011;4011;49.424;10.894;2022-12-29T13:05:31;3.63;;;1.85;;
7931;SDS011;4011;49.424;10.894;2022-12-29T13:10:56;3.40;;;1.70;;
7931;SDS011;4011;49.424;10.894;2022-12-29T13:16:24;2.88;;;1.73;;
7931;SDS011;4011;49.424;10.894;2022-12-29T13:21:53;2.90;;;1.77;;
7931;SDS011;4011;49.424;10.894;2022-12-29T13:27:16;3.28;;;1.90;;
7931;SDS011;4011;49.424;10.894;2022-12-29T13:32:44;3.03;;;1.60;;
7931;SDS011;4011;49.424;10.894;2022-12-29T13:38:11;2.92;;;1.70;;
7931;SDS011;4011;49.424;10.894;2022-12-29T13:43:34;3.33;;;1.85;;
7931;SDS011;4011;49.424;10.894;2022-12-29T13:48:57;2.83;;;1.90;;
7931;SDS011;4011;49.424;10.894;2022-12-29T14:00:02;3.47;;;1.90;;
7931;SDS011;4011;49.424;10.894;2022-12-29T14:05:28;3.17;;;1.80;;
7931;SDS011;4011;49.424;10.894;2022-12-29T14:10:50;3.83;;;1.80;;
7931;SDS011;4011;49.424;10.894;2022-12-29T14:16:24;3.35;;;1.80;;
7931;SDS011;4011;49.424;10.894;2022-12-29T14:21:52;3.08;;;1.60;;
7931;SDS011;4011;49.424;10.894;2022-12-29T14:33:03;2.95;;;1.73;;
7931;SDS011;4011;49.424;10.894;2022-12-29T14:38:32;2.75;;;1.60;;
7931;SDS011;4011;49.424;10.894;2022-12-29T14:43:55;3.80;;;1.80;;
7931;SDS011;4011;49.424;10.894;2022-12-29T14:49:20;3.42;;;1.92;;
7931;SDS011;4011;49.424;10.894;2022-12-29T14:54:47;2.70;;;1.50;;
7931;SDS011;4011;49.424;10.894;2022-12-29T15:00:17;4.30;;;1.88;;
7931;SDS011;4011;49.424;10.894;2022-12-29T15:05:42;3.78;;;1.92;;
7931;SDS011;4011;49.424;10.894;2022-12-29T15:11:06;2.97;;;1.77;;
7931;SDS011;4011;49.424;10.894;2022-12-29T15:16:32;2.95;;;1.60;;
7931;SDS011;4011;49.424;10.894;2022-12-29T15:21:58;3.22;;;1.75;;
7931;SDS011;4011;49.424;10.894;2022-12-29T15:27:20;3.45;;;1.80;;
7931;SDS011;4011;49.424;10.894;2022-12-29T15:32:42;3.30;;;1.60;;
7931;SDS011;4011;49.424;10.894;2022-12-29T15:38:14;3.60;;;1.80;;
7931;SDS011;4011;49.424;10.894;2022-12-29T15:43:39;2.60;;;1.50;;
7931;SDS011;4011;49.424;10.894;2022-12-29T15:49:05;4.50;;;1.90;;
7931;SDS011;4011;49.424;10.894;2022-12-29T15:54:28;4.35;;;1.67;;
7931;SDS011;4011;49.424;10.894;2022-12-29T15:59:51;4.47;;;1.70;;
7931;SDS011;4011;49.424;10.894;2022-12-29T16:05:14;3.15;;;1.60;;
7931;SDS011;4011;49.424;10.894;2022-12-29T16:10:38;4.38;;;1.70;;
7931;SDS011;4011;49.424;10.894;2022-12-29T16:16:01;3.15;;;1.65;;
7931;SDS011;4011;49.424;10.894;2022-12-29T16:21:25;2.90;;;1.65;;
7931;SDS011;4011;49.424;10.894;2022-12-29T16:26:49;2.65;;;1.60;;
7931;SDS011;4011;49.424;10.894;2022-12-29T16:32:22;2.83;;;1.60;;
7931;SDS011;4011;49.424;10.894;2022-12-29T16:37:44;2.78;;;1.70;;
7931;SDS011;4011;49.424;10.894;2022-12-29T16:43:19;3.42;;;1.70;;
7931;SDS011;4011;49.424;10.894;2022-12-29T16:48:45;2.88;;;1.80;;
7931;SDS011;4011;49.424;10.894;2022-12-29T16:54:13;2.75;;;1.60;;
7931;SDS011;4011;49.424;10.894;2022-12-29T16:59:41;2.72;;;1.60;;
7931;SDS011;4011;49.424;10.894;2022-12-29T17:05:03;2.35;;;1.70;;
7931;SDS011;4011;49.424;10.894;2022-12-29T17:10:25;2.15;;;1.40;;
7931;SDS011;4011;49.424;10.894;2022-12-29T17:16:09;2.65;;;1.60;;
7931;SDS011;4011;49.424;10.894;2022-12-29T17:21:31;2.92;;;1.70;;
7931;SDS011;4011;49.424;10.894;2022-12-29T17:26:54;3.30;;;1.60;;
7931;SDS011;4011;49.424;10.894;2022-12-29T17:32:18;3.00;;;1.50;;
7931;SDS011;4011;49.424;10.894;2022-12-29T17:37:40;4.20;;;1.95;;
7931;SDS011;4011;49.424;10.894;2022-12-29T17:43:01;4.40;;;2.10;;
7931;SDS011;4011;49.424;10.894;2022-12-29T17:48:24;3.42;;;1.85;;
7931;SDS011;4011;49.424;10.894;2022-12-29T17:53:46;3.83;;;2.10;;
7931;SDS011;4011;49.424;10.894;2022-12-29T17:59:10;5.10;;;2.10;;
7931;SDS011;4011;49.424;10.894;2022-12-29T18:04:34;5.18;;;2.30;;
7931;SDS011;4011;49.424;10.894;2022-12-29T18:09:56;3.92;;;2.10;;
7931;SDS011;4011;49.424;10.894;2022-12-29T18:15:18;3.72;;;2.05;;
7931;SDS011;4011;49.424;10.894;2022-12-29T18:20:42;6.18;;;2.40;;
7931;SDS011;4011;49.424;10.894;2022-12-29T18:26:04;4.75;;;2.33;;
7931;SDS011;4011;49.424;10.894;2022-12-29T18:31:28;5.72;;;2.50;;
7931;SDS011;4011;49.424;10.894;2022-12-29T18:36:51;6.53;;;2.47;;
7931;SDS011;4011;49.424;10.894;2022-12-29T18:42:14;5.93;;;2.45;;
7931;SDS011;4011;49.424;10.894;2022-12-29T18:47:36;4.25;;;2.38;;
7931;SDS011;4011;49.424;10.894;2022-12-29T18:53:00;4.45;;;2.28;;
7931;SDS011;4011;49.424;10.894;2022-12-29T18:58:22;4.00;;;2.20;;
7931;SDS011;4011;49.424;10.894;2022-12-29T19:03:43;4.10;;;2.13;;
7931;SDS011;4011;49.424;10.894;2022-12-29T19:09:06;4.75;;;2.47;;
7931;SDS011;4011;49.424;10.894;2022-12-29T19:14:28;4.53;;;2.20;;
7931;SDS011;4011;49.424;10.894;2022-12-29T19:19:49;5.40;;;2.40;;
7931;SDS011;4011;49.424;10.894;2022-12-29T19:25:13;4.78;;;2.40;;
7931;SDS011;4011;49.424;10.894;2022-12-29T19:30:34;4.40;;;2.63;;
7931;SDS011;4011;49.424;10.894;2022-12-29T19:35:57;5.13;;;2.83;;
7931;SDS011;4011;49.424;10.894;2022-12-29T19:41:20;5.32;;;2.42;;
7931;SDS011;4011;49.424;10.894;2022-12-29T19:46:42;4.22;;;2.47;;
7931;SDS011;4011;49.424;10.894;2022-12-29T19:52:04;4.57;;;2.70;;
7931;SDS011;4011;49.424;10.894;2022-12-29T19:57:29;5.18;;;2.70;;
7931;SDS011;4011;49.424;10.894;2022-12-29T20:02:51;4.38;;;2.70;;
7931;SDS011;4011;49.424;10.894;2022-12-29T20:08:13;4.63;;;2.50;;
7931;SDS011;4011;49.424;10.894;2022-12-29T20:13:36;4.95;;;2.33;;
7931;SDS011;4011;49.424;10.894;2022-12-29T20:18:57;4.38;;;2.22;;
7931;SDS011;4011;49.424;10.894;2022-12-29T20:24:19;4.38;;;2.30;;
7931;SDS011;4011;49.424;10.894;2022-12-29T20:29:42;5.15;;;2.40;;
7931;SDS011;4011;49.424;10.894;2022-12-29T20:35:04;5.18;;;2.45;;
7931;SDS011;4011;49.424;10.894;2022-12-29T20:40:25;3.55;;;2.10;;
7931;SDS011;4011;49.424;10.894;2022-12-29T20:45:48;3.72;;;1.95;;
7931;SDS011;4011;49.424;10.894;2022-12-29T20:51:10;3.70;;;2.05;;
7931;SDS011;4011;49.424;10.894;2022-12-29T20:56:39;4.10;;;2.38;;
7931;SDS011;4011;49.424;10.894;2022-12-29T21:02:03;3.00;;;2.20;;
7931;SDS011;4011;49.424;10.894;2022-12-29T21:07:24;3.42;;;2.00;;
7931;SDS011;4011;49.424;10.894;2022-12-29T21:12:46;3.78;;;2.25;;
7931;SDS011;4011;49.424;10.894;2022-12-29T21:18:10;3.90;;;2.10;;
7931;SDS011;4011;49.424;10.894;2022-12-29T21:23:32;3.45;;;2.10;;
7931;SDS011;4011;49.424;10.894;2022-12-29T21:28:54;3.15;;;1.80;;
7931;SDS011;4011;49.424;10.894;2022-12-29T21:34:17;3.80;;;2.00;;
7931;SDS011;4011;49.424;10.894;2022-12-29T21:39:39;3.30;;;2.00;;
7931;SDS011;4011;49.424;10.894;2022-12-29T21:45:00;3.65;;;1.83;;
7931;SDS011;4011;49.424;10.894;2022-12-29T21:50:41;3.70;;;2.10;;
7931;SDS011;4011;49.424;10.894;2022-12-29T21:56:17;3.63;;;2.13;;
7931;SDS011;4011;49.424;10.894;2022-12-29T22:01:40;3.33;;;1.90;;
7931;SDS011;4011;49.424;10.894;2022-12-29T22:07:20;3.97;;;2.00;;
7931;SDS011;4011;49.424;10.894;2022-12-29T22:13:00;3.63;;;1.80;;
7931;SDS011;4011;49.424;10.894;2022-12-29T22:18:22;3.47;;;1.90;;
7931;SDS011;4011;49.424;10.894;2022-12-29T22:23:45;3.25;;;2.13;;
7931;SDS011;4011;49.424;10.894;2022-12-29T22:29:06;3.88;;;2.20;;
7931;SDS011;4011;49.424;10.894;2022-12-29T22:34:28;3.75;;;2.30;;
7931;SDS011;4011;49.424;10.894;2022-12-29T22:39:51;3.33;;;1.85;;
7931;SDS011;4011;49.424;10.894;2022-12-29T22:45:12;3.75;;;2.00;;
7931;SDS011;4011;49.424;10.894;2022-12-29T22:50:34;4.30;;;1.85;;
7931;SDS011;4011;49.424;10.894;2022-12-29T22:56:05;3.65;;;2.00;;
7931;SDS011;4011;49.424;10.894;2022-12-29T23:01:27;2.97;;;1.80;;
7931;SDS011;4011;49.424;10.894;2022-12-29T23:06:49;4.50;;;2.00;;
7931;SDS011;4011;49.424;10.894;2022-12-29T23:12:12;3.97;;;1.95;;
7931;SDS011;4011;49.424;10.894;2022-12-29T23:17:34;3.58;;;2.22;;
7931;SDS011;4011;49.424;10.894;2022-12-29T23:22:55;3.60;;;1.98;;
7931;SDS011;4011;49.424;10.894;2022-12-29T23:28:18;3.85;;;2.00;;
7931;SDS011;4011;49.424;10.894;2022-12-29T23:33:40;3.58;;;2.00;;
7931;SDS011;4011;49.424;10.894;2022-12-29T23:39:02;3.58;;;2.05;;
7931;SDS011;4011;49.424;10.894;2022-12-29T23:44:25;3.85;;;2.17;;
7931;SDS011;4011;49.424;10.894;2022-12-29T23:49:47;4.03;;;2.10;;
7931;SDS011;4011;49.424;10.894;2022-12-29T23:55:09;4.10;;;1.90;;
